Livermore, CA

4:11 PM PDT on September 30, 2014 (GMT -0700)
KCALIVER27 | Change Station
CLOSE
Current Station
Personal Weather Station
Location: Livermore, CA
Elevation: 571 ft
Nearby Weather Stations

Elev 571 ft 37.67 °N, 121.74 °W | Updated 3 seconds ago

Clear
Clear
77.6 °F
Feels Like 78 °F
N
0.0
Wind Variable Wind from North
Gusts 0.0 mph

Today
High -- | Low -- °F
--% Chance of Precip.
Yesterday
High -- | Low -- °F
Precip. -- in
7:01 AM 6:51 PM
Waxing Crescent, 41% visible
Pressure 29.83 in
Visibility 10.0 miles
Clouds Clear
Heat Index 78 °F
Dew Point 51 °F
Humidity 39%
Rainfall 0.00 in
Snow Depth 0 in , 1 in , 0 in
UV 3 out of 12
Pollen 2.80 out of 12
PM2.5 Good
Flu Activity Not available.
METAR KLVK 302253Z 25006KT 10SM CLR 27/06 A2984 RMK AO2 SLP102 T02670061

More Conditions Fewer Conditions

Pressure 29.83 in
Visibility 10.0 miles
Clouds Clear
Heat Index 78 °F
Dew Point 51 °F
Humidity 39%
Rainfall 0.00 in
Snow Depth 0 in , 1 in , 0 in
UV 3 out of 12
Pollen 2.80 out of 12
PM2.5 Good
Flu Activity Not available.
METAR KLVK 302253Z 25006KT 10SM CLR 27/06 A2984 RMK AO2 SLP102 T02670061

More Conditions Fewer Conditions

10-Day Weather Forecast

Almanac

Astronomy

Sep. 30, 2014 Rise Set
Actual Time 7:01 AM PDT 6:51 PM PDT
Civil Twilight 6:35 AM PDT 7:17 PM PDT
Nautical Twilight 6:05 AM PDT 7:47 PM PDT
Astronomical Twilight 5:34 AM PDT 8:18 PM PDT
Moon 1:09 PM PDT 11:31 PM PDT
Length of Visible Light 12h 41m
Length of Day
11h 49m
Tomorrow will be 2m 24s shorter.
Waxing Crescent, 41% of the Moon is Illuminated
Today
Waxing Crescent
Oct 1
First Quarter
Oct 8
Full
Oct 15
Last Quarter
Oct 23
New

Today's Extremes

State Highs State Lows

Community

WunderPhotos

Upload Photos

1,757,768 photos uploaded!

Nearby

Air Quality

  Air Quality AQ Index Pollutant
Yesterday Good
PM2.5
Yesterday Good
OZONE
Current Good
PM2.5
Tuesday Good
OZONE
Wednesday Good
OZONE
Thursday Moderate
OZONE
Friday Moderate
OZONE
Saturday Moderate
OZONE
Sunday Moderate
OZONE

Snow Depth

Station Depth Elevation
Tahoe City Cross 0 in 6750 ft
CSS Lab 1 in 6900 ft
Adin Mountain 0 in 6200 ft
Summit Meadow 0 in 9122 ft
Leavitt Meadows 0 in 7200 ft

Earthquake Activity

City Distance Mag. Time & Date
East Foothills, California 13 miles 2.6 3:34 PM PDT
2014-09-30
South Dos Palos, California 87 miles 2.7 3:08 PM PDT
2014-09-30
South Dos Palos, California 87 miles 2.5 9:18 PM PDT
2014-09-29
American Canyon, California 46 miles 2.5 12:17 AM PDT
2014-09-29
Minimum magnitude displayed is 2.5.

Coastal Water Temperatures

Place Temperature
No Stations Reporting

Nearby Weather Stations